Important Message - Daily Racing Form/Affinity Gaming will be permanently shutting down StatFox on 6/30/2024.
Valued StatFox Customers: We are thrilled to refer you to our friends at StatSharp, launching just in time for the 2024 football season! As StatFox closes its doors, we encourage you to bookmark www.statsharp.com and stay tuned for their launch. StatSharp's cutting-edge platform will offer power ratings, game simulations, betting systems, in-depth trends for teams and player, and much more to elevate your sports betting experience. Discover the advanced insights and analytics at StatSharp, with even more precision and innovation.
StatFox.com - Sports Handicapping Community

The Leader In Sports Handicapping

StatSharp.com

CHI WHITE SOX WHITE SOX (81-81)

AMERICAN LEAGUE CENTRAL
 W-LPctUnits
CHI WHITE SOX 81-81 0.500 -16.2
CLEVELAND 96-73 0.568 +23.4
DETROIT 66-96 0.407 -4.9
KANSAS CITY 65-97 0.401 -14.8
MINNESOTA 78-84 0.481 -14.3

Starting Pitchers for the 2022 Season
Pitcher W-L TR ERA WHIP H-9 BB-9 SO-9 Units
(R) V VELASQUEZ 2-3 6-3 5.26 1.40 9.15 3.43 8.01
+3.50
(R) J KELLY 0-0 1-0 18.00 4.00 18.00 18.00 18.00
+1.25
(R) L LYNN 8-7 12-9 3.99 1.13 8.73 1.41 9.17
+1.15
(R) R LOPEZ 0-0 1-0 0.00 0.50 4.50 0.00 13.50
+1.00
(R) D CEASE 14-8 20-12 2.20 1.11 6.16 3.82 11.10
+0.75
(R) J LAMBERT 0-2 0-2 5.40 1.50 9.45 4.05 8.10
-2.00
(R) J CUETO 8-10 11-13 3.29 1.21 9.04 1.88 5.75
-2.55
(R) D MARTIN 2-6 3-6 5.68 1.42 9.74 3.04 6.90
-3.00
(R) M KOPECH 5-9 11-14 3.77 1.20 6.49 4.30 7.92
-5.63
(R) L GIOLITO 11-9 13-17 4.90 1.44 9.52 3.40 9.85
-9.00
Season to Date Statistics for the 2022 Season
  Runs AB Hits EB HR RBI BB SO SB Errors LOB GIDP Avg
CHI WHITE SOX 4.23 34.64 8.85 2.65 0.92 4.04 2.40 7.83 0.36 0.63 6.94 0.78 0.255
Opponents 4.43 33.94 8.21 2.78 1.02 4.23 3.29 8.95 0.60 0.52 6.88 0.62 0.242
Margin -0.19 0.70 0.64 -0.13 -0.10 -0.20 -0.90 1.12 -0.24 -0.10 -0.07 -0.16 0.013

Bullpen Statistics for the 2022 Season
  ERA WHIP IP R ER H HR SO BB W-L SV BSV Pct.
All Games 4.03 1.303 3.59 1.83 1.61 3.26 0.36 1.43 3.82 29-22 48 23 67.61%
Home Games 4.80 1.431 3.77 2.35 2.01 3.86 0.44 1.53 3.95 14-11 22 11 66.67%
Away Games 3.18 1.162 3.42 1.32 1.21 2.65 0.27 1.32 3.69 15-11 26 12 68.42%
Last 7 Games 1.52 1.183 3.38 0.57 0.57 2.14 0.29 1.86 5.29 1-0 4 1 80.00%

Game Log for the 2022 Season Last 20 Games |  All Games YTD
October 2022 ResultsFORAGAINST
DateOpponentPitcherLineOUScoreResOUHBBSOHRHBBSOHR
10-5-22 vs MINNESOTA D MARTIN -120 7.5 1-10 Loss Ov 8 1 6 0 10 6 11 2
10-4-22 vs MINNESOTA L GIOLITO -135 7.5 8-3 Win Ov 8 1 8 1 3 3 7 1
10-3-22 vs MINNESOTA J CUETO -110 7.5 3-2 Win Un 5 1 7 1 7 1 8 1
10-2-22 at SAN DIEGO L LYNN +140 7 2-1 Win Un 5 3 8 1 8 2 8 1
10-1-22 at SAN DIEGO D CEASE +100 7 2-5 Loss P 6 1 7 1 9 5 9 3
September 2022 ResultsFORAGAINST
DateOpponentPitcherLineOUScoreResOUHBBSOHRHBBSOHR
9-30-22 at SAN DIEGO D MARTIN +190 7.5 3-1 Win Un 8 1 10 1 7 2 15 0
9-29-22 at MINNESOTA L GIOLITO -105 8 4-3 Win Un 7 3 6 0 6 6 12 0
9-28-22 at MINNESOTA J CUETO +100 7.5 4-8 Loss Ov 9 0 10 0 12 5 10 0
9-27-22 at MINNESOTA L LYNN -120 6.5 0-4 Loss Un 2 1 14 0 10 1 8 1
9-25-22 vs DETROIT D CEASE -220 8 1-4 Loss Un 6 3 5 1 11 3 7 0
9-24-22 vs DETROIT D MARTIN -165 8.5 2-7 Loss Ov 5 3 3 2 14 2 7 2
9-23-22 vs DETROIT L GIOLITO -175 7 3-5 Loss Ov 8 3 8 1 9 2 12 1
9-22-22 vs CLEVELAND J CUETO +135 7 2-4 Loss Un 7 0 7 1 9 1 5 0
9-21-22 vs CLEVELAND L LYNN -130 8 2-8 Loss Ov 7 0 14 1 11 4 5 2
9-20-22 vs CLEVELAND D CEASE -175 7 7-10 Loss Ov 10 1 10 1 11 7 5 0
9-18-22 at DETROIT V VELASQUEZ -150 8.5 11-5 Win Ov 12 4 9 3 5 5 12 2
9-17-22 at DETROIT D MARTIN -150 8 4-3 Win Un 5 2 13 0 5 2 11 0
9-16-22 at DETROIT L GIOLITO -145 7.5 2-3 Loss Un 6 0 8 0 6 3 11 1
9-15-22 at CLEVELAND L LYNN -145 7.5 8-2 Win Ov 13 3 7 5 9 1 8 0
9-14-22 vs COLORADO D CEASE -260 7.5 0-3 Loss Un 8 3 11 0 7 2 15 0
9-13-22 vs COLORADO M KOPECH -195 8.5 4-2 Win Un 7 3 6 2 5 1 7 1
9-11-22 at OAKLAND J CUETO -160 7.5 3-10 Loss Ov 4 2 9 0 14 2 5 2
9-10-22 at OAKLAND L LYNN -175 7.5 10-2 Win Ov 20 4 6 1 3 1 9 0
9-9-22 at OAKLAND L GIOLITO -165 8 5-3 Win P 7 1 8 1 6 3 10 0
9-8-22 at OAKLAND D CEASE -200 7 14-2 Win Ov 21 3 7 5 6 2 13 0
9-7-22 at SEATTLE M KOPECH +182 7 9-6 Win Ov 8 3 12 1 8 6 12 2
9-6-22 at SEATTLE J CUETO +140 7.5 0-3 Loss Un 7 2 14 0 6 4 4 1
9-5-22 at SEATTLE L LYNN -125 7.5 3-2 Win Un 5 2 5 2 6 2 14 0
9-4-22 vs MINNESOTA L GIOLITO -135 8 1-5 Loss Un 7 1 7 0 12 2 9 1
9-3-22 vs MINNESOTA D CEASE -135 7.5 13-0 Win Ov 13 4 5 3 1 2 7 0
9-2-22 vs MINNESOTA J KELLY +125 8 4-3 Win Un 11 1 6 1 8 4 6 0
9-1-22 vs KANSAS CITY J CUETO -165 9 7-1 Win Un 11 3 12 2 8 2 11 0
August 2022 ResultsFORAGAINST
DateOpponentPitcherLineOUScoreResOUHBBSOHRHBBSOHR
8-31-22 vs KANSAS CITY L LYNN -200 8.5 4-2 Win Un 9 6 3 2 6 0 10 1
8-30-22 vs KANSAS CITY L GIOLITO -125 8 7-9 Loss Ov 12 2 11 3 13 3 11 4
8-28-22 vs ARIZONA D CEASE -175 7.5 2-3 Loss Un 7 5 7 0 3 3 8 2
8-27-22 vs ARIZONA D MARTIN -105 8 5-10 Loss Ov 7 1 8 1 11 7 6 0
8-26-22 vs ARIZONA J CUETO -160 8.5 2-7 Loss Ov 6 3 3 1 6 3 8 2
8-25-22 at BALTIMORE L LYNN -115 8 3-4 Loss Un 11 0 5 1 7 1 12 2
8-24-22 at BALTIMORE L GIOLITO -110 8.5 5-3 Win Un 12 6 8 0 6 3 6 1
8-23-22 at BALTIMORE D CEASE -130 7 3-5 Loss Ov 11 4 6 1 5 3 7 1
8-22-22 at KANSAS CITY M KOPECH -145 8 4-6 Loss Ov 10 7 5 0 6 6 7 0
8-20-22 at CLEVELAND J CUETO +155 7.5 2-0 Win Un 5 3 5 0 5 1 3 0
8-19-22 at CLEVELAND L LYNN +120 7.5 2-5 Loss Un 7 0 17 0 9 4 8 1
8-18-22 vs HOUSTON L GIOLITO +115 8.5 5-21 Loss Ov 11 8 10 1 25 4 9 4
8-17-22 vs HOUSTON M KOPECH +130 8 2-3 Loss Un 8 4 9 0 5 3 6 0
8-16-22 vs HOUSTON D CEASE +125 7 4-3 Win P 10 2 5 0 9 4 9 1
8-15-22 vs HOUSTON J CUETO +110 8.5 4-2 Win Un 9 2 5 0 7 2 3 0
8-14-22 vs DETROIT L LYNN -195 8 5-3 Win P 10 4 6 2 8 0 14 1
8-13-22 vs DETROIT L GIOLITO -175 7.5 6-4 Win Ov 14 1 7 1 10 2 11 0
8-12-22 vs DETROIT M KOPECH -205 8.5 2-0 Win Un 8 5 6 0 3 3 14 0
8-11-22 at KANSAS CITY D CEASE -165 7.5 3-5 Loss Ov 14 1 7 2 8 4 9 1
8-10-22 at KANSAS CITY J CUETO -145 8.5 3-8 Loss Ov 7 3 11 0 15 3 5 1
8-9-22 at KANSAS CITY D MARTIN -130 9 3-2 Win Un 8 3 9 2 5 2 8 1
8-9-22 at KANSAS CITY L LYNN -115 8 2-4 Loss Un 7 0 8 1 9 1 7 2
8-7-22 at TEXAS L GIOLITO -130 8 8-2 Win Ov 15 2 8 1 9 5 10 1
8-6-22 at TEXAS M KOPECH -115 8 0-8 Loss P 2 1 10 0 7 6 8 1
8-5-22 at TEXAS D CEASE -170 7.5 2-1 Win Un 6 1 12 1 3 4 9 0
8-4-22 at TEXAS J CUETO -145 9 2-3 Loss Un 5 6 9 0 11 0 4 0
8-3-22 vs KANSAS CITY L LYNN -130 8.5 4-1 Win Un 12 2 6 1 4 1 14 1
8-2-22 vs KANSAS CITY L GIOLITO -175 8.5 9-2 Win Ov 14 3 5 2 7 3 10 0
8-1-22 vs KANSAS CITY M KOPECH -165 9 1-2 Loss Un 10 1 9 0 6 1 6 2
July 2022 ResultsFORAGAINST
DateOpponentPitcherLineOUScoreResOUHBBSOHRHBBSOHR
7-31-22 vs OAKLAND D CEASE -275 8 4-1 Win Un 8 0 7 2 6 2 10 1
7-30-22 vs OAKLAND J CUETO -160 8 3-2 Win Un 9 2 6 1 8 1 4 2
7-29-22 vs OAKLAND L LYNN -185 8 3-7 Loss Ov 6 1 6 1 9 0 11 4
7-27-22 at COLORADO L GIOLITO -120 11.5 5-6 Loss Un 11 2 7 0 11 9 9 1
7-26-22 at COLORADO M KOPECH -105 11 2-1 Win Un 9 3 10 0 9 5 6 1
7-24-22 vs CLEVELAND D CEASE -150 7.5 6-3 Win Ov 8 1 5 3 11 3 9 2
7-23-22 vs CLEVELAND L LYNN -160 9 5-4 Win P 8 5 4 1 8 2 9 0
7-23-22 vs CLEVELAND J CUETO -110 8.5 4-7 Loss Ov 11 2 7 0 12 1 2 0
7-22-22 vs CLEVELAND L GIOLITO -155 8.5 2-8 Loss Ov 7 2 9 0 15 2 5 1
7-17-22 at MINNESOTA D CEASE -120 8.5 11-0 Win Ov 16 4 10 3 1 3 9 0
7-16-22 at MINNESOTA L LYNN +120 9 3-6 Loss P 9 2 7 0 10 2 11 3
7-15-22 at MINNESOTA M KOPECH +115 9 6-2 Win Un 8 3 9 2 7 4 5 0
7-14-22 at MINNESOTA J CUETO +150 8.5 12-2 Win Ov 17 3 5 3 11 2 8 1
7-13-22 at CLEVELAND L GIOLITO -115 8 2-1 Win Un 8 2 9 0 5 1 9 0
7-12-22 at CLEVELAND D CEASE -165 8.5 7-0 Win Un 9 3 9 3 8 4 14 0
7-12-22 at CLEVELAND D MARTIN +150 8 1-4 Loss Un 3 0 7 0 8 2 4 0
7-11-22 at CLEVELAND L LYNN -110 9 4-8 Loss Ov 8 1 6 1 12 2 6 0
7-10-22 vs DETROIT M KOPECH -180 9 4-2 Win Un 7 2 4 1 5 3 8 1
7-9-22 vs DETROIT J CUETO -165 8.5 8-0 Win Un 11 2 5 1 6 0 6 0
7-8-22 vs DETROIT L GIOLITO -175 8 5-7 Loss Ov 11 2 11 1 8 3 11 1
7-7-22 vs DETROIT D CEASE -245 8 1-2 Loss Un 4 2 6 0 5 4 9 1
7-6-22 vs MINNESOTA L LYNN -115 8 9-8 Win Ov 14 3 8 3 13 3 9 3
7-5-22 vs MINNESOTA M KOPECH -130 9 2-8 Loss Ov 10 2 10 0 12 5 7 5
7-4-22 vs MINNESOTA J CUETO -135 9 3-6 Loss P 8 2 9 1 8 7 8 1
7-3-22 at SAN FRANCISCO L GIOLITO +120 8 13-4 Win Ov 17 3 10 0 7 2 11 0
7-2-22 at SAN FRANCISCO D CEASE +130 7 5-3 Win Ov 8 1 5 0 8 5 8 1
7-1-22 at SAN FRANCISCO L LYNN +135 7.5 1-0 Win Un 6 3 7 0 3 5 7 0
June 2022 ResultsFORAGAINST
DateOpponentPitcherLineOUScoreResOUHBBSOHRHBBSOHR
6-29-22 at LA ANGELS M KOPECH +175 7.5 1-4 Loss Un 7 2 15 0 5 2 10 1
6-28-22 at LA ANGELS J CUETO +110 8.5 11-4 Win Ov 17 4 12 2 9 1 9 3
6-27-22 at LA ANGELS L GIOLITO +125 8.5 3-4 Loss Un 6 1 8 0 9 4 7 0
6-26-22 vs BALTIMORE D CEASE -220 9 4-3 Win Un 8 1 4 1 7 2 16 1
6-25-22 vs BALTIMORE L LYNN -195 9 2-6 Loss Un 6 2 7 0 9 2 12 1
6-24-22 vs BALTIMORE M KOPECH -170 9 1-4 Loss Un 1 2 8 0 5 4 6 0
6-23-22 vs BALTIMORE J CUETO -155 8.5 0-4 Loss Un 9 3 10 0 10 2 11 1
6-22-22 vs TORONTO L GIOLITO +105 9 5-9 Loss Ov 13 2 7 0 13 1 5 3
6-21-22 vs TORONTO D CEASE +115 9 7-6 Win Ov 15 6 12 0 8 7 17 1
6-20-22 vs TORONTO L LYNN +110 9 8-7 Win Ov 13 2 3 3 8 2 10 2
6-19-22 at HOUSTON M KOPECH +135 7 3-4 Loss P 6 5 9 0 8 3 5 2
6-18-22 at HOUSTON J CUETO +220 7.5 7-0 Win Un 12 1 10 0 3 2 8 0
6-17-22 at HOUSTON L GIOLITO +150 8 3-13 Loss Ov 8 0 12 1 12 4 7 5
6-15-22 at DETROIT V VELASQUEZ +105 8.5 13-0 Win Ov 22 3 11 3 4 0 6 0
6-14-22 at DETROIT D CEASE -165 8 5-1 Win Un 12 3 4 0 9 1 14 0
6-13-22 at DETROIT L LYNN -130 8 9-5 Win Ov 15 3 10 2 12 3 9 1
6-12-22 vs TEXAS M KOPECH -140 8 6-8 Loss Ov 8 6 13 0 11 5 13 2
6-11-22 vs TEXAS L GIOLITO -155 8 9-11 Loss Ov 15 3 15 1 15 6 11 1
6-10-22 vs TEXAS R LOPEZ -135 9 8-3 Win Ov 11 4 7 1 6 1 12 3
6-9-22 vs LA DODGERS D CEASE +115 9 9-11 Loss Ov 10 6 9 1 12 7 15 1
6-8-22 vs LA DODGERS J CUETO +160 8.5 1-4 Loss Un 4 1 10 1 6 1 9 3
6-7-22 vs LA DODGERS M KOPECH +110 8.5 4-0 Win Un 7 2 6 0 5 3 9 0
6-5-22 at TAMPA BAY L GIOLITO -105 7 6-5 Win Ov 16 2 3 0 9 2 8 2
6-4-22 at TAMPA BAY D CEASE +115 6.5 3-2 Win Un 7 1 6 1 4 8 11 0
6-3-22 at TAMPA BAY D MARTIN +175 7 3-6 Loss Ov 11 2 12 1 8 4 2 1
6-2-22 at TORONTO J CUETO +175 8 3-8 Loss Ov 7 2 7 0 12 3 8 1
6-1-22 at TORONTO M KOPECH +110 8.5 3-7 Loss Ov 8 1 8 2 10 8 10 3
May 2022 ResultsFORAGAINST
DateOpponentPitcherLineOUScoreResOUHBBSOHRHBBSOHR
5-31-22 at TORONTO L GIOLITO +182 7.5 5-6 Loss Ov 13 3 9 1 12 3 10 2
5-29-22 vs CHICAGO CUBS D CEASE -140 7 5-4 Win Ov 10 3 4 0 5 5 10 0
5-28-22 vs CHICAGO CUBS J CUETO -135 8 1-5 Loss Un 7 3 8 1 10 5 3 0
5-26-22 vs BOSTON D KEUCHEL +110 9 7-16 Loss Ov 10 5 7 1 19 5 12 3
5-25-22 vs BOSTON L GIOLITO -145 7.5 3-1 Win Un 5 3 4 1 7 7 10 0
5-24-22 vs BOSTON D CEASE -150 7 3-16 Loss Ov 6 4 9 1 19 5 12 4
5-22-22 at NY YANKEES M KOPECH +150 8.5 5-0 Win Un 13 0 7 1 3 2 7 0
5-22-22 at NY YANKEES J CUETO +145 9 3-1 Win Un 8 2 8 1 8 3 9 1
5-21-22 at NY YANKEES D KEUCHEL +190 9 5-7 Loss Ov 11 1 14 1 8 6 3 1
5-19-22 at KANSAS CITY V VELASQUEZ -135 10 7-4 Win Ov 14 5 11 1 11 1 4 1
5-18-22 at KANSAS CITY L GIOLITO -145 8 2-6 Loss P 10 1 5 0 12 2 9 2
5-17-22 at KANSAS CITY D MARTIN +105 8.5 1-2 Loss Un 7 0 10 0 8 1 10 1
5-17-22 at KANSAS CITY D CEASE -185 8 3-0 Win Un 5 5 4 0 9 4 14 0
5-16-22 at KANSAS CITY J CUETO -110 8.5 5-3 Win Un 10 2 7 2 6 2 14 0
5-15-22 vs NY YANKEES M KOPECH +110 7.5 1-5 Loss Un 4 0 8 1 2 5 6 1
5-14-22 vs NY YANKEES D KEUCHEL +125 9 3-2 Win Un 11 4 6 1 9 4 8 0
5-13-22 vs NY YANKEES V VELASQUEZ +165 8 4-10 Loss Ov 9 1 11 1 14 4 7 4
5-12-22 vs NY YANKEES D CEASE -145 8 7-15 Loss Ov 8 4 8 1 15 7 14 4
5-10-22 vs CLEVELAND L GIOLITO -185 8 4-1 Win Un 10 0 3 1 7 3 5 1
5-9-22 vs CLEVELAND M KOPECH -185 7.5 9-12 Loss Ov 7 7 9 2 12 4 11 3
5-8-22 at BOSTON D KEUCHEL +160 8 3-2 Win Un 6 1 10 0 9 1 10 0
5-7-22 at BOSTON D CEASE -135 7.5 3-1 Win Un 10 1 11 0 7 3 10 0
5-6-22 at BOSTON V VELASQUEZ +155 8.5 4-2 Win Un 10 5 7 1 6 4 7 0
5-4-22 at CHICAGO CUBS L GIOLITO -135 6.5 4-3 Win Ov 9 2 6 2 5 2 12 2
5-3-22 at CHICAGO CUBS M KOPECH -130 6.5 3-1 Win Un 7 2 3 1 6 3 12 0
5-2-22 vs LA ANGELS D CEASE -145 7 3-0 Win Un 7 3 4 0 2 0 15 0
5-1-22 vs LA ANGELS D KEUCHEL +110 8.5 5-6 Loss Ov 12 3 3 0 9 9 6 1
April 2022 ResultsFORAGAINST
DateOpponentPitcherLineOUScoreResOUHBBSOHRHBBSOHR
4-30-22 vs LA ANGELS V VELASQUEZ -115 9 4-0 Win Un 10 2 6 2 6 1 8 0
4-29-22 vs LA ANGELS L GIOLITO -145 7.5 1-5 Loss Un 3 1 6 0 13 2 10 2
4-28-22 vs KANSAS CITY M KOPECH -160 7 2-5 Loss P 5 1 7 1 6 8 8 0
4-27-22 vs KANSAS CITY D CEASE -185 7 7-3 Win Ov 9 2 7 2 4 4 13 0
4-26-22 vs KANSAS CITY D KEUCHEL -155 8.5 0-6 Loss Un 5 2 10 0 6 11 3 0
4-24-22 at MINNESOTA L GIOLITO -110 7.5 4-6 Loss Ov 9 3 7 2 9 9 14 2
4-23-22 at MINNESOTA V VELASQUEZ +135 9 2-9 Loss Ov 7 2 11 1 14 4 11 2
4-22-22 at MINNESOTA M KOPECH -110 7.5 1-2 Loss Un 6 3 11 1 5 3 9 0
4-21-22 at CLEVELAND D CEASE -145 7.5 3-6 Loss Ov 8 1 6 0 13 2 4 1
4-20-22 at CLEVELAND J LAMBERT +135 7.5 1-2 Loss Un 3 4 9 0 6 3 11 0
4-20-22 at CLEVELAND D KEUCHEL +145 7.5 1-11 Loss Ov 5 1 10 0 11 3 5 1
4-17-22 vs TAMPA BAY V VELASQUEZ -110 8.5 3-9 Loss Ov 3 5 9 1 12 5 8 0
4-16-22 vs TAMPA BAY M KOPECH -120 8 3-2 Win Un 7 0 6 1 5 4 12 0
4-15-22 vs TAMPA BAY D CEASE -130 8 3-2 Win Un 6 0 6 1 6 2 13 0
4-14-22 vs SEATTLE J LAMBERT +105 9 1-5 Loss Un 4 1 9 0 7 6 8 3
4-13-22 vs SEATTLE D KEUCHEL -110 9 6-4 Win Ov 10 4 6 3 8 1 12 1
4-12-22 vs SEATTLE V VELASQUEZ -110 8.5 3-2 Win Un 6 3 9 1 7 6 10 1
4-10-22 at DETROIT M KOPECH -125 8 10-1 Win Ov 12 3 6 1 2 4 8 0
4-9-22 at DETROIT D CEASE -130 8.5 5-2 Win Un 10 0 5 1 7 5 12 0
4-8-22 at DETROIT L GIOLITO -135 8 4-5 Loss Ov 8 3 3 1 8 4 11 1

Situational Breakdown Summary for the 2022 Season
Situation #G W-L Win % Units ROI Ov-Un-P Under % Over %
All Games  
162 81-81 50.0%
-16.2
-7.5%
72-79-11 52.3% 47.7%
Home Games  
81 37-44 45.7%
-25.3
-21.4%
37-39-5 51.3% 48.7%
Away Games  
81 44-37 54.3%
+9.0
+9.3%
35-40-6 53.3% 46.7%
NAT Surface  
152 77-75 50.7%
-13.8
-6.8%
66-76-10 53.5% 46.5%
ART Surface  
7 2-5 28.6%
-3.6
-41.9%
4-2-1 33.3% 66.7%
Dome Stadiums  
3 2-1 66.7%
+1.2
+37.7%
2-1-0 33.3% 66.7%
vs RH-Starter  
124 63-61 50.8%
-6.1
-3.8%
54-61-9 53.0% 47.0%
vs LH-Starter  
38 18-20 47.4%
-10.2
-18.5%
18-18-2 50.0% 50.0%
vs AL East  
32 15-17 46.9%
-3.0
-7.7%
15-17-0 53.1% 46.9%
vs AL Central  
76 37-39 48.7%
-15.0
-14.1%
36-34-6 48.6% 51.4%
vs AL West  
34 18-16 52.9%
+1.0
+2.3%
14-16-4 53.3% 46.7%
vs NL Central  
4 3-1 75.0%
+1.7
+30.6%
2-2-0 50.0% 50.0%
vs NL West  
16 8-8 50.0%
-0.9
-4.7%
5-10-1 66.7% 33.3%
as Favorite  
108 57-51 52.8%
-19.2
-11.9%
49-52-7 51.5% 48.5%
as Underdog  
54 24-30 44.4%
+3.0
+5.5%
23-27-4 54.0% 46.0%
as (-200 or more) Favorite  
8 5-3 62.5%
-2.3
-12.3%
1-7-0 87.5% 12.5%
as (+200 or more) Underdog  
1 1-0 100.0%
+2.2
+220.0%
0-1-0 100.0% 0.0%
1 Run Games  
43 27-16 62.8%
+9.0
+16.7%
9-31-3 77.5% 22.5%
2-3 Run Games  
58 28-30 48.3%
-9.3
-11.3%
22-30-6 57.7% 42.3%
4+ Run Games  
61 26-35 42.6%
-15.9
-19.9%
41-18-2 30.5% 69.5%
Day Games  
68 37-31 54.4%
+0.4
+0.5%
35-30-3 46.2% 53.8%
Night Games  
94 44-50 46.8%
-16.7
-13.4%
37-49-8 57.0% 43.0%
1st Game Doubleheader  
6 2-4 33.3%
-1.8
-25.4%
2-4-0 66.7% 33.3%
2nd Game Doubleheader  
6 4-2 66.7%
+2.5
+33.1%
0-5-1 100.0% 0.0%

Sports Data Provider